Svitzer Leixoes — CSXW6 — position and weather

sailwx.info

Track history (hours):
 
Tides and Currents Weather Stations Pressure Air Temp Water Temp Dewpoint Dewpoint Depression Visibility Wind Speed Wind Dir Waves Ship Positions

Svitzer Leixoes

Last reported at 2016-Jul-28 17:31 UTC. Time now 2016-Jul-28 18:21 UTC.
Position N 38°42' W 009°10'.

Length 28 m; draft 3.6 m.

Type: Towing. MMSI: 263622000.

Date/timePositionNaut miles runAvg speedWind from/ knotsBaromVisibWave heightAir tempDewpointWater temp
2016-Jul-28 17:31N 38°42' W 009°10'0 0.0
2016-Jul-28 16:30N 38°42' W 009°10'0 0.0
2016-Jul-28 15:33N 38°42' W 009°10'0 0.0
2016-Jul-28 14:33N 38°42' W 009°10'0 0.0
2016-Jul-28 13:33N 38°42' W 009°10'0 0.0
2016-Jul-28 12:29N 38°42' W 009°10'2 1.8
2016-Jul-28 11:33N 38°41' W 009°08'2 1.7
2016-Jul-28 10:33N 38°42' W 009°08'0 0.1
2016-Jul-28 09:33N 38°42' W 009°08'2 2.4
2016-Jul-28 08:33N 38°40' W 009°09'4 4.0
2016-Jul-28 07:33N 38°41' W 009°04'5 4.7
2016-Jul-28 06:33N 38°42' W 009°10'0 0.0
2016-Jul-28 05:33N 38°42' W 009°10'0 0.0
2016-Jul-28 04:33N 38°42' W 009°10'0 0.0
2016-Jul-28 03:33N 38°42' W 009°10'0 0.0
2016-Jul-28 02:33N 38°42' W 009°10'0 0.0
2016-Jul-28 01:33N 38°42' W 009°10'0 0.0
2016-Jul-28 00:33N 38°42' W 009°10'0 0.0
2016-Jul-27 23:33N 38°42' W 009°10'0 0.0
2016-Jul-27 22:31N 38°42' W 009°10'0 0.0
2016-Jul-27 21:33N 38°42' W 009°10'0 0.0
2016-Jul-27 20:27N 38°42' W 009°10'0 0.0
2016-Jul-27 19:32N 38°42' W 009°10'0 0.0
2016-Jul-27 18:31N 38°42' W 009°10'0 0.0
2016-Jul-27 17:31N 38°42' W 009°10'0 0.0
2016-Jul-27 16:33N 38°42' W 009°10'0 0.0
2016-Jul-27 15:32N 38°42' W 009°10'0 0.0
2016-Jul-27 14:33N 38°42' W 009°10'0 0.0
2016-Jul-27 13:26N 38°42' W 009°10'0 0.0
2016-Jul-27 12:32N 38°42' W 009°10'0 0.0
2016-Jul-27 11:20N 38°42' W 009°10'0 0.0
2016-Jul-27 10:33N 38°42' W 009°10'0 0.0
2016-Jul-27 09:31N 38°42' W 009°10'0 0.0
2016-Jul-27 08:31N 38°42' W 009°10'0 0.0
2016-Jul-27 06:31N 38°42' W 009°10'0 0.0
2016-Jul-27 05:27N 38°42' W 009°10'0 0.0
2016-Jul-27 04:17N 38°42' W 009°10'0 0.0
2016-Jul-27 03:33N 38°42' W 009°10'0 0.0
2016-Jul-27 02:32N 38°42' W 009°10'0 0.0
2016-Jul-27 01:31N 38°42' W 009°10'0 0.0
2016-Jul-27 00:27N 38°42' W 009°10'1 1.0
2016-Jul-26 23:33N 38°42' W 009°10'1 0.9
2016-Jul-26 22:33N 38°42' W 009°10'0 0.0
2016-Jul-26 21:33N 38°42' W 009°10'0 0.0
2016-Jul-26 20:33N 38°42' W 009°10'4 3.6
2016-Jul-26 19:34N 38°41' W 009°14'4 3.7
2016-Jul-26 18:33N 38°42' W 009°09'0 0.1
2016-Jul-26 17:33N 38°42' W 009°10'0 0.0
2016-Jul-26 16:33N 38°42' W 009°10'0 0.3
2016-Jul-26 15:33N 38°42' W 009°10'0 0.1
2016-Jul-26 14:32N 38°42' W 009°10'0 0.2
2016-Jul-26 13:34N 38°42' W 009°10'0 0.0
2016-Jul-26 12:24N 38°42' W 009°10'0 0.0
2016-Jul-26 11:27N 38°42' W 009°10'0 0.0
2016-Jul-26 10:33N 38°42' W 009°10'1 0.5
2016-Jul-26 09:31N 38°42' W 009°10'1 0.6
2016-Jul-26 08:33N 38°42' W 009°10'0 0.0
2016-Jul-26 07:33N 38°42' W 009°10'0 0.0
2016-Jul-26 06:33N 38°42' W 009°10'0 0.0
2016-Jul-26 05:33N 38°42' W 009°10'0 0.0
2016-Jul-26 04:33N 38°42' W 009°10'0 0.0
2016-Jul-26 03:33N 38°42' W 009°10'0 0.0
2016-Jul-26 02:33N 38°42' W 009°10'0 0.0
2016-Jul-26 01:33N 38°42' W 009°10'0 0.0
2016-Jul-26 00:33N 38°42' W 009°10'0 0.0
2016-Jul-25 23:33N 38°42' W 009°10'0 0.0
2016-Jul-25 22:34N 38°42' W 009°10'0 0.0
2016-Jul-25 21:33N 38°42' W 009°10'0 0.0
2016-Jul-25 20:33N 38°42' W 009°10'0 0.0
2016-Jul-25 19:33N 38°42' W 009°10'0 0.0
2016-Jul-25 18:33N 38°42' W 009°10'0 0.0
2016-Jul-25 17:30N 38°42' W 009°10'0 0.0
2016-Jul-25 16:33N 38°42' W 009°10'0 0.2
2016-Jul-25 15:34N 38°42' W 009°09'3 2.7
2016-Jul-25 14:32N 38°41' W 009°13'4 4.1
2016-Jul-25 13:33N 38°42' W 009°08'1 1.1
2016-Jul-25 12:32N 38°42' W 009°09'1 1.3
2016-Jul-25 11:33N 38°42' W 009°08'2 1.5
2016-Jul-25 10:30N 38°42' W 009°10'0 0.0
2016-Jul-25 09:33N 38°42' W 009°10'0 0.0
2016-Jul-25 08:33N 38°42' W 009°10'0 0.0
2016-Jul-25 07:33N 38°42' W 009°10'0 0.0
2016-Jul-25 06:33N 38°42' W 009°10'1 0.7
2016-Jul-25 05:33N 38°42' W 009°10'1 0.7
2016-Jul-25 04:33N 38°42' W 009°10'0 0.0
2016-Jul-25 03:33N 38°42' W 009°10'0 0.0
2016-Jul-25 02:33N 38°42' W 009°10'0 0.0
2016-Jul-25 01:33N 38°42' W 009°10'0 0.0
2016-Jul-25 00:33N 38°42' W 009°10'0 0.0
2016-Jul-24 23:33N 38°42' W 009°10'0 0.0
2016-Jul-24 22:33N 38°42' W 009°10'0 0.0
2016-Jul-24 21:33N 38°42' W 009°10'0 0.0
2016-Jul-24 20:33N 38°42' W 009°10'0 0.0
2016-Jul-24 19:33N 38°42' W 009°10'0 0.0
2016-Jul-24 18:33N 38°42' W 009°10'0 0.0
2016-Jul-24 17:33N 38°42' W 009°10'0 0.0
2016-Jul-24 16:33N 38°42' W 009°10'0 0.0
2016-Jul-24 15:33N 38°42' W 009°10'0 0.0
2016-Jul-24 14:33N 38°42' W 009°10'0 0.0
2016-Jul-24 13:33N 38°42' W 009°10'0 0.0
2016-Jul-24 12:33N 38°42' W 009°10'0 0.0
2016-Jul-24 11:33N 38°42' W 009°10'0 0.0
2016-Jul-24 10:33N 38°42' W 009°10'0 0.0
2016-Jul-24 09:33N 38°42' W 009°10'0 0.0
2016-Jul-24 08:33N 38°42' W 009°10'0 0.0
2016-Jul-24 07:31N 38°42' W 009°10'0 0.0
2016-Jul-24 06:33N 38°42' W 009°10'0 0.0
2016-Jul-24 05:33N 38°42' W 009°10'0 0.0
2016-Jul-24 04:33N 38°42' W 009°10'0 0.0
2016-Jul-24 03:33N 38°42' W 009°10'0 0.0
2016-Jul-24 02:33N 38°42' W 009°10'5 4.8
2016-Jul-24 01:34N 38°41' W 009°04'5 4.5
2016-Jul-24 00:30N 38°42' W 009°10'0 0.0
2016-Jul-23 23:30N 38°42' W 009°10'0 0.0
2016-Jul-23 22:31N 38°42' W 009°10'0 0.0
2016-Jul-23 21:27N 38°42' W 009°10'0 0.0
2016-Jul-23 20:33N 38°42' W 009°10'0 0.0
2016-Jul-23 19:33N 38°42' W 009°10'0 0.0
2016-Jul-23 18:33N 38°42' W 009°10'0 0.0
2016-Jul-23 17:30N 38°42' W 009°10'0 0.0
2016-Jul-23 16:31N 38°42' W 009°10'0 0.0
2016-Jul-23 15:30N 38°42' W 009°10'0 0.0
2016-Jul-23 14:33N 38°42' W 009°10'0 0.1
2016-Jul-23 13:33N 38°42' W 009°09'5 4.7
2016-Jul-23 12:33N 38°41' W 009°04'5 5.0
2016-Jul-23 11:32N 38°41' W 009°10'1 1.1
2016-Jul-23 10:32N 38°42' W 009°10'0 0.0
2016-Jul-23 09:32N 38°42' W 009°10'0 0.0
2016-Jul-23 08:33N 38°42' W 009°10'0 0.0
2016-Jul-23 07:30N 38°42' W 009°10'0 0.0
2016-Jul-23 06:31N 38°42' W 009°10'0 0.0
2016-Jul-23 04:28N 38°42' W 009°10'0 0.0
2016-Jul-23 03:33N 38°42' W 009°10'0 0.0
2016-Jul-23 02:28N 38°42' W 009°10'0 0.0
2016-Jul-23 01:24N 38°42' W 009°10'0 0.0
2016-Jul-23 00:04N 38°42' W 009°10'0 0.0
2016-Jul-22 23:26N 38°42' W 009°10'0 0.0
2016-Jul-22 22:31N 38°42' W 009°10'0 0.0
2016-Jul-22 21:17N 38°42' W 009°10'0 0.0
2016-Jul-22 20:05N 38°42' W 009°10'0 0.0
2016-Jul-22 19:27N 38°42' W 009°10'0 0.0
2016-Jul-22 18:29N 38°42' W 009°10'2 2.5
2016-Jul-22 17:33N 38°43' W 009°07'4 3.8
2016-Jul-22 16:33N 38°41' W 009°11'2 1.1
2016-Jul-22 15:11N 38°42' W 009°10'2 2.7
2016-Jul-22 14:33N 38°42' W 009°07'2 1.6
2016-Jul-22 13:33N 38°42' W 009°09'0 0.1
2016-Jul-22 12:24N 38°42' W 009°10'0 0.0
2016-Jul-22 11:31N 38°42' W 009°10'0 0.0
2016-Jul-22 10:26N 38°42' W 009°10'2 2.4
2016-Jul-22 09:33N 38°43' W 009°07'2 1.8
2016-Jul-22 08:33N 38°42' W 009°09'1 0.6
2016-Jul-22 07:33N 38°42' W 009°10'1 0.3
2016-Jul-22 05:33N 38°42' W 009°10'1 0.5
2016-Jul-22 04:30N 38°42' W 009°10'0 0.0
2016-Jul-22 03:32N 38°42' W 009°10'0 0.0
2016-Jul-22 02:29N 38°42' W 009°10'0 0.0
2016-Jul-22 01:29N 38°42' W 009°10'0 0.0
2016-Jul-22 00:26N 38°42' W 009°10'0 0.0
2016-Jul-21 23:33N 38°42' W 009°10'0 0.0
2016-Jul-21 22:33N 38°42' W 009°10'2 1.7
2016-Jul-21 21:32N 38°42' W 009°07'1 0.7
2016-Jul-21 20:33N 38°42' W 009°08'0 0.4
2016-Jul-21 19:33N 38°42' W 009°08'0 0.2
2016-Jul-21 18:33N 38°42' W 009°08'1 0.6
2016-Jul-21 17:32N 38°43' W 009°07'0 0.2
2016-Jul-21 16:33N 38°42' W 009°08'0 0.2
2016-Jul-21 15:33N 38°42' W 009°08'2 1.6
2016-Jul-21 14:33N 38°42' W 009°10'0 0.2
2016-Jul-21 13:32N 38°42' W 009°10'0 0.0
2016-Jul-21 12:32N 38°42' W 009°10'0 0.0
2016-Jul-21 11:33N 38°42' W 009°10'0 0.0
2016-Jul-21 10:30N 38°42' W 009°10'0 0.0
2016-Jul-21 09:33N 38°42' W 009°10'0 0.0
2016-Jul-21 08:33N 38°42' W 009°10'0 0.0
2016-Jul-21 07:33N 38°42' W 009°10'0 0.0
2016-Jul-21 06:33N 38°42' W 009°10'0 0.0
2016-Jul-21 05:33N 38°42' W 009°10'0 0.0
2016-Jul-21 04:34N 38°42' W 009°10'0 0.0
2016-Jul-21 03:34N 38°42' W 009°10'0 0.0
2016-Jul-21 02:32N 38°42' W 009°10'0 0.0
2016-Jul-21 01:29N 38°42' W 009°10'0 0.0
2016-Jul-21 00:33N 38°42' W 009°10'0 0.0
2016-Jul-20 23:32N 38°42' W 009°10'0 0.0
2016-Jul-20 22:32N 38°42' W 009°10'0 0.0
2016-Jul-20 21:33N 38°42' W 009°10'0 0.0
2016-Jul-20 20:34N 38°42' W 009°10'0 0.0
2016-Jul-20 19:33N 38°42' W 009°10'0 0.0
2016-Jul-20 18:32N 38°42' W 009°10'0 0.0
2016-Jul-20 17:32N 38°42' W 009°10'0 0.0
2016-Jul-20 16:29N 38°42' W 009°10'0 0.0
2016-Jul-20 15:34N 38°42' W 009°10'0 0.0
2016-Jul-20 14:30N 38°42' W 009°10'0 0.0
2016-Jul-20 13:28N 38°42' W 009°10'0 0.0
2016-Jul-20 12:30N 38°42' W 009°10'0 0.0
2016-Jul-20 11:25N 38°42' W 009°10'2 2.4
2016-Jul-20 10:33N 38°43' W 009°07'0 0.1
2016-Jul-20 09:33N 38°43' W 009°07'2 2.4
2016-Jul-20 08:33N 38°42' W 009°10'0 0.3
2016-Jul-20 07:34N 38°42' W 009°10'0 0.0
2016-Jul-20 06:31N 38°42' W 009°10'0 0.0
2016-Jul-20 05:33N 38°42' W 009°10'0 0.0
2016-Jul-20 04:33N 38°42' W 009°10'0 0.0
2016-Jul-20 03:33N 38°42' W 009°10'0 0.0
2016-Jul-20 02:33N 38°42' W 009°10'0 0.0
2016-Jul-20 01:33N 38°42' W 009°10'0 0.0
2016-Jul-20 00:32N 38°42' W 009°10'0 0.0
2016-Jul-19 23:33N 38°42' W 009°10'0 0.0
2016-Jul-19 22:34N 38°42' W 009°10'0 0.0
2016-Jul-19 21:32N 38°42' W 009°10'0 0.0
2016-Jul-19 20:33N 38°42' W 009°10'0 0.0
2016-Jul-19 19:24N 38°42' W 009°10'0 0.0
2016-Jul-19 18:33N 38°42' W 009°10'0 0.0
2016-Jul-19 17:31N 38°42' W 009°10'0 0.0
2016-Jul-19 16:21N 38°42' W 009°10'0 0.0
2016-Jul-19 15:25N 38°42' W 009°10'0 0.4
2016-Jul-19 14:30N 38°42' W 009°10'0 0.3
2016-Jul-19 13:23N 38°42' W 009°10'0 0.0
2016-Jul-19 12:33N 38°42' W 009°10'1 0.7
2016-Jul-19 11:33N 38°42' W 009°09'2 1.9
2016-Jul-19 10:32N 38°40' W 009°09'2 2.2
2016-Jul-19 09:32N 38°42' W 009°10'1 0.7
2016-Jul-19 08:32N 38°42' W 009°10'2 1.8
2016-Jul-19 07:33N 38°42' W 009°07'2 0.6
2016-Jul-19 04:33N 38°42' W 009°10'0 0.0
2016-Jul-19 03:33N 38°42' W 009°10'0 0.0
2016-Jul-19 02:31N 38°42' W 009°10'0 0.0
2016-Jul-19 01:32N 38°42' W 009°10'0 0.0
2016-Jul-19 00:33N 38°42' W 009°10'0 0.0
2016-Jul-18 23:33N 38°42' W 009°10'0 0.0
2016-Jul-18 22:33N 38°42' W 009°10'0 0.0
2016-Jul-18 21:28N 38°42' W 009°10'0 0.0
2016-Jul-18 20:32N 38°42' W 009°10'0 0.0
2016-Jul-18 19:32N 38°42' W 009°10'0 0.0
2016-Jul-18 18:29N 38°42' W 009°10'0 0.0
2016-Jul-18 17:33N 38°42' W 009°10'  
Track history (hours):
 
Tides and Currents Weather Stations Pressure Air Temp Water Temp Dewpoint Dewpoint Depression Visibility Wind Speed Wind Dir Waves Ship Positions

Svitzer Leixoes

Last reported at 2016-Jul-28 17:31 UTC. Time now 2016-Jul-28 18:21 UTC.
Position N 38°42' W 009°10'.

Length 28 m; draft 3.6 m.

Type: Towing. MMSI: 263622000.

Date/timePositionNaut miles runAvg speedWind from/ knotsBaromVisibWave heightAir tempDewpointWater temp
2016-Jul-28 17:31N 38°42' W 009°10'0 0.0
2016-Jul-28 16:30N 38°42' W 009°10'0 0.0
2016-Jul-28 15:33N 38°42' W 009°10'0 0.0
2016-Jul-28 14:33N 38°42' W 009°10'0 0.0
2016-Jul-28 13:33N 38°42' W 009°10'0 0.0
2016-Jul-28 12:29N 38°42' W 009°10'2 1.8
2016-Jul-28 11:33N 38°41' W 009°08'2 1.7
2016-Jul-28 10:33N 38°42' W 009°08'0 0.1
2016-Jul-28 09:33N 38°42' W 009°08'2 2.4
2016-Jul-28 08:33N 38°40' W 009°09'4 4.0
2016-Jul-28 07:33N 38°41' W 009°04'5 4.7
2016-Jul-28 06:33N 38°42' W 009°10'0 0.0
2016-Jul-28 05:33N 38°42' W 009°10'0 0.0
2016-Jul-28 04:33N 38°42' W 009°10'0 0.0
2016-Jul-28 03:33N 38°42' W 009°10'0 0.0
2016-Jul-28 02:33N 38°42' W 009°10'0 0.0
2016-Jul-28 01:33N 38°42' W 009°10'0 0.0
2016-Jul-28 00:33N 38°42' W 009°10'0 0.0
2016-Jul-27 23:33N 38°42' W 009°10'0 0.0
2016-Jul-27 22:31N 38°42' W 009°10'0 0.0
2016-Jul-27 21:33N 38°42' W 009°10'0 0.0
2016-Jul-27 20:27N 38°42' W 009°10'0 0.0
2016-Jul-27 19:32N 38°42' W 009°10'0 0.0
2016-Jul-27 18:31N 38°42' W 009°10'0 0.0
2016-Jul-27 17:31N 38°42' W 009°10'0 0.0
2016-Jul-27 16:33N 38°42' W 009°10'0 0.0
2016-Jul-27 15:32N 38°42' W 009°10'0 0.0
2016-Jul-27 14:33N 38°42' W 009°10'0 0.0
2016-Jul-27 13:26N 38°42' W 009°10'0 0.0
2016-Jul-27 12:32N 38°42' W 009°10'0 0.0
2016-Jul-27 11:20N 38°42' W 009°10'0 0.0
2016-Jul-27 10:33N 38°42' W 009°10'0 0.0
2016-Jul-27 09:31N 38°42' W 009°10'0 0.0
2016-Jul-27 08:31N 38°42' W 009°10'0 0.0
2016-Jul-27 06:31N 38°42' W 009°10'0 0.0
2016-Jul-27 05:27N 38°42' W 009°10'0 0.0
2016-Jul-27 04:17N 38°42' W 009°10'0 0.0
2016-Jul-27 03:33N 38°42' W 009°10'0 0.0
2016-Jul-27 02:32N 38°42' W 009°10'0 0.0
2016-Jul-27 01:31N 38°42' W 009°10'0 0.0
2016-Jul-27 00:27N 38°42' W 009°10'1 1.0
2016-Jul-26 23:33N 38°42' W 009°10'1 0.9
2016-Jul-26 22:33N 38°42' W 009°10'0 0.0
2016-Jul-26 21:33N 38°42' W 009°10'0 0.0
2016-Jul-26 20:33N 38°42' W 009°10'4 3.6
2016-Jul-26 19:34N 38°41' W 009°14'4 3.7
2016-Jul-26 18:33N 38°42' W 009°09'0 0.1
2016-Jul-26 17:33N 38°42' W 009°10'0 0.0
2016-Jul-26 16:33N 38°42' W 009°10'0 0.3
2016-Jul-26 15:33N 38°42' W 009°10'0 0.1
2016-Jul-26 14:32N 38°42' W 009°10'0 0.2
2016-Jul-26 13:34N 38°42' W 009°10'0 0.0
2016-Jul-26 12:24N 38°42' W 009°10'0 0.0
2016-Jul-26 11:27N 38°42' W 009°10'0 0.0
2016-Jul-26 10:33N 38°42' W 009°10'1 0.5
2016-Jul-26 09:31N 38°42' W 009°10'1 0.6
2016-Jul-26 08:33N 38°42' W 009°10'0 0.0
2016-Jul-26 07:33N 38°42' W 009°10'0 0.0
2016-Jul-26 06:33N 38°42' W 009°10'0 0.0
2016-Jul-26 05:33N 38°42' W 009°10'0 0.0
2016-Jul-26 04:33N 38°42' W 009°10'0 0.0
2016-Jul-26 03:33N 38°42' W 009°10'0 0.0
2016-Jul-26 02:33N 38°42' W 009°10'0 0.0
2016-Jul-26 01:33N 38°42' W 009°10'0 0.0
2016-Jul-26 00:33N 38°42' W 009°10'0 0.0
2016-Jul-25 23:33N 38°42' W 009°10'0 0.0
2016-Jul-25 22:34N 38°42' W 009°10'0 0.0
2016-Jul-25 21:33N 38°42' W 009°10'0 0.0
2016-Jul-25 20:33N 38°42' W 009°10'0 0.0
2016-Jul-25 19:33N 38°42' W 009°10'0 0.0
2016-Jul-25 18:33N 38°42' W 009°10'0 0.0
2016-Jul-25 17:30N 38°42' W 009°10'0 0.0
2016-Jul-25 16:33N 38°42' W 009°10'0 0.2
2016-Jul-25 15:34N 38°42' W 009°09'3 2.7
2016-Jul-25 14:32N 38°41' W 009°13'4 4.1
2016-Jul-25 13:33N 38°42' W 009°08'1 1.1
2016-Jul-25 12:32N 38°42' W 009°09'1 1.3
2016-Jul-25 11:33N 38°42' W 009°08'2 1.5
2016-Jul-25 10:30N 38°42' W 009°10'0 0.0
2016-Jul-25 09:33N 38°42' W 009°10'0 0.0
2016-Jul-25 08:33N 38°42' W 009°10'0 0.0
2016-Jul-25 07:33N 38°42' W 009°10'0 0.0
2016-Jul-25 06:33N 38°42' W 009°10'1 0.7
2016-Jul-25 05:33N 38°42' W 009°10'1 0.7
2016-Jul-25 04:33N 38°42' W 009°10'0 0.0
2016-Jul-25 03:33N 38°42' W 009°10'0 0.0
2016-Jul-25 02:33N 38°42' W 009°10'0 0.0
2016-Jul-25 01:33N 38°42' W 009°10'0 0.0
2016-Jul-25 00:33N 38°42' W 009°10'0 0.0
2016-Jul-24 23:33N 38°42' W 009°10'0 0.0
2016-Jul-24 22:33N 38°42' W 009°10'0 0.0
2016-Jul-24 21:33N 38°42' W 009°10'0 0.0
2016-Jul-24 20:33N 38°42' W 009°10'0 0.0
2016-Jul-24 19:33N 38°42' W 009°10'0 0.0
2016-Jul-24 18:33N 38°42' W 009°10'0 0.0
2016-Jul-24 17:33N 38°42' W 009°10'0 0.0
2016-Jul-24 16:33N 38°42' W 009°10'0 0.0
2016-Jul-24 15:33N 38°42' W 009°10'0 0.0
2016-Jul-24 14:33N 38°42' W 009°10'0 0.0
2016-Jul-24 13:33N 38°42' W 009°10'0 0.0
2016-Jul-24 12:33N 38°42' W 009°10'0 0.0
2016-Jul-24 11:33N 38°42' W 009°10'0 0.0
2016-Jul-24 10:33N 38°42' W 009°10'0 0.0
2016-Jul-24 09:33N 38°42' W 009°10'0 0.0
2016-Jul-24 08:33N 38°42' W 009°10'0 0.0
2016-Jul-24 07:31N 38°42' W 009°10'0 0.0
2016-Jul-24 06:33N 38°42' W 009°10'0 0.0
2016-Jul-24 05:33N 38°42' W 009°10'0 0.0
2016-Jul-24 04:33N 38°42' W 009°10'0 0.0
2016-Jul-24 03:33N 38°42' W 009°10'0 0.0
2016-Jul-24 02:33N 38°42' W 009°10'5 4.8
2016-Jul-24 01:34N 38°41' W 009°04'5 4.5
2016-Jul-24 00:30N 38°42' W 009°10'0 0.0
2016-Jul-23 23:30N 38°42' W 009°10'0 0.0
2016-Jul-23 22:31N 38°42' W 009°10'0 0.0
2016-Jul-23 21:27N 38°42' W 009°10'0 0.0
2016-Jul-23 20:33N 38°42' W 009°10'0 0.0
2016-Jul-23 19:33N 38°42' W 009°10'0 0.0
2016-Jul-23 18:33N 38°42' W 009°10'0 0.0
2016-Jul-23 17:30N 38°42' W 009°10'0 0.0
2016-Jul-23 16:31N 38°42' W 009°10'0 0.0
2016-Jul-23 15:30N 38°42' W 009°10'0 0.0
2016-Jul-23 14:33N 38°42' W 009°10'0 0.1
2016-Jul-23 13:33N 38°42' W 009°09'5 4.7
2016-Jul-23 12:33N 38°41' W 009°04'5 5.0
2016-Jul-23 11:32N 38°41' W 009°10'1 1.1
2016-Jul-23 10:32N 38°42' W 009°10'0 0.0
2016-Jul-23 09:32N 38°42' W 009°10'0 0.0
2016-Jul-23 08:33N 38°42' W 009°10'0 0.0
2016-Jul-23 07:30N 38°42' W 009°10'0 0.0
2016-Jul-23 06:31N 38°42' W 009°10'0 0.0
2016-Jul-23 04:28N 38°42' W 009°10'0 0.0
2016-Jul-23 03:33N 38°42' W 009°10'0 0.0
2016-Jul-23 02:28N 38°42' W 009°10'0 0.0
2016-Jul-23 01:24N 38°42' W 009°10'0 0.0
2016-Jul-23 00:04N 38°42' W 009°10'0 0.0
2016-Jul-22 23:26N 38°42' W 009°10'0 0.0
2016-Jul-22 22:31N 38°42' W 009°10'0 0.0
2016-Jul-22 21:17N 38°42' W 009°10'0 0.0
2016-Jul-22 20:05N 38°42' W 009°10'0 0.0
2016-Jul-22 19:27N 38°42' W 009°10'0 0.0
2016-Jul-22 18:29N 38°42' W 009°10'2 2.5
2016-Jul-22 17:33N 38°43' W 009°07'4 3.8
2016-Jul-22 16:33N 38°41' W 009°11'2 1.1
2016-Jul-22 15:11N 38°42' W 009°10'2 2.7
2016-Jul-22 14:33N 38°42' W 009°07'2 1.6
2016-Jul-22 13:33N 38°42' W 009°09'0 0.1
2016-Jul-22 12:24N 38°42' W 009°10'0 0.0
2016-Jul-22 11:31N 38°42' W 009°10'0 0.0
2016-Jul-22 10:26N 38°42' W 009°10'2 2.4
2016-Jul-22 09:33N 38°43' W 009°07'2 1.8
2016-Jul-22 08:33N 38°42' W 009°09'1 0.6
2016-Jul-22 07:33N 38°42' W 009°10'1 0.3
2016-Jul-22 05:33N 38°42' W 009°10'1 0.5
2016-Jul-22 04:30N 38°42' W 009°10'0 0.0
2016-Jul-22 03:32N 38°42' W 009°10'0 0.0
2016-Jul-22 02:29N 38°42' W 009°10'0 0.0
2016-Jul-22 01:29N 38°42' W 009°10'0 0.0
2016-Jul-22 00:26N 38°42' W 009°10'0 0.0
2016-Jul-21 23:33N 38°42' W 009°10'0 0.0
2016-Jul-21 22:33N 38°42' W 009°10'2 1.7
2016-Jul-21 21:32N 38°42' W 009°07'1 0.7
2016-Jul-21 20:33N 38°42' W 009°08'0 0.4
2016-Jul-21 19:33N 38°42' W 009°08'0 0.2
2016-Jul-21 18:33N 38°42' W 009°08'1 0.6
2016-Jul-21 17:32N 38°43' W 009°07'0 0.2
2016-Jul-21 16:33N 38°42' W 009°08'0 0.2
2016-Jul-21 15:33N 38°42' W 009°08'2 1.6
2016-Jul-21 14:33N 38°42' W 009°10'0 0.2
2016-Jul-21 13:32N 38°42' W 009°10'0 0.0
2016-Jul-21 12:32N 38°42' W 009°10'0 0.0
2016-Jul-21 11:33N 38°42' W 009°10'0 0.0
2016-Jul-21 10:30N 38°42' W 009°10'0 0.0
2016-Jul-21 09:33N 38°42' W 009°10'0 0.0
2016-Jul-21 08:33N 38°42' W 009°10'0 0.0
2016-Jul-21 07:33N 38°42' W 009°10'0 0.0
2016-Jul-21 06:33N 38°42' W 009°10'0 0.0
2016-Jul-21 05:33N 38°42' W 009°10'0 0.0
2016-Jul-21 04:34N 38°42' W 009°10'0 0.0
2016-Jul-21 03:34N 38°42' W 009°10'0 0.0
2016-Jul-21 02:32N 38°42' W 009°10'0 0.0
2016-Jul-21 01:29N 38°42' W 009°10'0 0.0
2016-Jul-21 00:33N 38°42' W 009°10'0 0.0
2016-Jul-20 23:32N 38°42' W 009°10'0 0.0
2016-Jul-20 22:32N 38°42' W 009°10'0 0.0
2016-Jul-20 21:33N 38°42' W 009°10'0 0.0
2016-Jul-20 20:34N 38°42' W 009°10'0 0.0
2016-Jul-20 19:33N 38°42' W 009°10'0 0.0
2016-Jul-20 18:32N 38°42' W 009°10'0 0.0
2016-Jul-20 17:32N 38°42' W 009°10'0 0.0
2016-Jul-20 16:29N 38°42' W 009°10'0 0.0
2016-Jul-20 15:34N 38°42' W 009°10'0 0.0
2016-Jul-20 14:30N 38°42' W 009°10'0 0.0
2016-Jul-20 13:28N 38°42' W 009°10'0 0.0
2016-Jul-20 12:30N 38°42' W 009°10'0 0.0
2016-Jul-20 11:25N 38°42' W 009°10'2 2.4
2016-Jul-20 10:33N 38°43' W 009°07'0 0.1
2016-Jul-20 09:33N 38°43' W 009°07'2 2.4
2016-Jul-20 08:33N 38°42' W 009°10'0 0.3
2016-Jul-20 07:34N 38°42' W 009°10'0 0.0
2016-Jul-20 06:31N 38°42' W 009°10'0 0.0
2016-Jul-20 05:33N 38°42' W 009°10'0 0.0
2016-Jul-20 04:33N 38°42' W 009°10'0 0.0
2016-Jul-20 03:33N 38°42' W 009°10'0 0.0
2016-Jul-20 02:33N 38°42' W 009°10'0 0.0
2016-Jul-20 01:33N 38°42' W 009°10'0 0.0
2016-Jul-20 00:32N 38°42' W 009°10'0 0.0
2016-Jul-19 23:33N 38°42' W 009°10'0 0.0
2016-Jul-19 22:34N 38°42' W 009°10'0 0.0
2016-Jul-19 21:32N 38°42' W 009°10'0 0.0
2016-Jul-19 20:33N 38°42' W 009°10'0 0.0
2016-Jul-19 19:24N 38°42' W 009°10'0 0.0
2016-Jul-19 18:33N 38°42' W 009°10'0 0.0
2016-Jul-19 17:31N 38°42' W 009°10'0 0.0
2016-Jul-19 16:21N 38°42' W 009°10'0 0.0
2016-Jul-19 15:25N 38°42' W 009°10'0 0.4
2016-Jul-19 14:30N 38°42' W 009°10'0 0.3
2016-Jul-19 13:23N 38°42' W 009°10'0 0.0
2016-Jul-19 12:33N 38°42' W 009°10'1 0.7
2016-Jul-19 11:33N 38°42' W 009°09'2 1.9
2016-Jul-19 10:32N 38°40' W 009°09'2 2.2
2016-Jul-19 09:32N 38°42' W 009°10'1 0.7
2016-Jul-19 08:32N 38°42' W 009°10'2 1.8
2016-Jul-19 07:33N 38°42' W 009°07'2 0.6
2016-Jul-19 04:33N 38°42' W 009°10'0 0.0
2016-Jul-19 03:33N 38°42' W 009°10'0 0.0
2016-Jul-19 02:31N 38°42' W 009°10'0 0.0
2016-Jul-19 01:32N 38°42' W 009°10'0 0.0
2016-Jul-19 00:33N 38°42' W 009°10'0 0.0
2016-Jul-18 23:33N 38°42' W 009°10'0 0.0
2016-Jul-18 22:33N 38°42' W 009°10'0 0.0
2016-Jul-18 21:28N 38°42' W 009°10'0 0.0
2016-Jul-18 20:32N 38°42' W 009°10'0 0.0
2016-Jul-18 19:32N 38°42' W 009°10'0 0.0
2016-Jul-18 18:29N 38°42' W 009°10'0 0.0
2016-Jul-18 17:33N 38°42' W 009°10'  

Dump ship's entire track history